Startpagina
METAR-TAF:

METAR-TAF

Vliegvelden :

Aeropuerto Internacional Jorge Wilstermann

Cochabamba, Bolivia

breedte: 17-25S, lengte: 066-11W, hoogte: 2548 m

Actueel weer

Dit bericht is 53 minuten geleden gemaakt, om 13:00 UTC
Weinig wind
Temperatuur 16°C
Vochtigheid 48%
Druk 1027 hPa
Zicht 10 km of meer
Weinig wolken op 3300 ft
Gebroken wolken op 20000 ft

METAR: SLCB 051300Z 00000KT 9999 FEW033 BKN200 16/05 Q1027

Tijdstip: 09:53 (13:53 UTC)

Verwachting

Verwachting geldig van 05 om 12 UTC tot 06 om 12 UTC
Wind kt uit het noorden
Zicht 10 km of meer
Weinig wolken op 3000 ft
Verspreide wolken op 7000 ft
Wijzigt naar
van 05 om 14 UTC tot 05 om 16 UTC
Wind 10 kt uit het noordoosten
Wijzigt naar
van 06 om 02 UTC tot 06 om 04 UTC
Wind kt uit het noorden

TAF: SLCB 0512/0612 00000KT 9999 FEW030 SCT070 TX24/0519Z TN06/ 0610Z BECMG 0514/0516 04010KT BECMG 0602/0604 00000KT

Waarnemingen en weersverwachtingen van meer dan 4000 vliegvelden (METAR en TAF).

De beschikbare stations zijn de gele en rode punten op de kaart.

Ga met uw muis naar het station om de naam te zien.

Klik dan om waarnemingen en weersverwachtingen te zien.

kaart wijzigen: klik op de groene knoppen met een zwart kruis om in te zoomen, op de groene knop met een streepje om uit te zoomen of op de groene pijlen voor aangrenzende kaarten.


METAR-TAF: